Terminal Aerodrome Forecast
Issued by NWS

Home | Current Version | Previous Version | Text Only | Print | Product List | Glossary On
Versions: 1 2 3 4 5 6 7 8 9 10 11 12 13 14 15 16 17 18
000
FTUS42 KGSP 260800 AAA
TAFAND
TAF AMD
KAND 260858Z 2609/2706 00000KT P6SM FEW080 BKN250
      TEMPO 2610/2613 5SM BR
     FM261300 25004KT P6SM FEW120 BKN250
     FM261700 25006KT P6SM SCT060 BKN250
     FM270300 00000KT P6SM SCT120 BKN250=

USA.gov is the U.S. government's official web portal to all federal, state and local government web resources and services.